AFL1525 ULLI-UUDD
Flight info
| Callsign | AFL1525 |
|---|---|
| Flight time | N/A |
| Altitude | 37000 |
| Route | SUGIN1B SUGIN T873 NIRGI T73 DESUD P164 IBOGI/K0772F290 T287 ESOLO ESOLO3L |
| Aircraft | A321/M-SDE3FGHIRWY/LB1 |
Departure
| Time | 2026-05-06 13:01 |
|---|---|
| Airport | Pulkovo Airport (ULLI) |
Arrival
| Time | N/A |
|---|---|
| Airport | Domodedovo International Airport (UUDD) |
| Time | Latitude | Longitude | Altitude | Speed | Heading |
|---|---|---|---|---|---|
| 2026-05-06 12:27 | 59.79815 | 30.26647 | 82 ft | 0 kts | 107° |
| 2026-05-06 12:49 | 59.79819 | 30.26625 | 86 ft | 4 kts | 117° |
| 2026-05-06 12:50 | 59.79835 | 30.26587 | 84 ft | 4 kts | 154° |
| 2026-05-06 12:50 | 59.79860 | 30.26573 | 87 ft | 4 kts | 178° |
| 2026-05-06 12:50 | 59.79886 | 30.26577 | 86 ft | 2 kts | 196° |
| 2026-05-06 12:50 | 59.79888 | 30.26578 | 86 ft | 0 kts | 197° |
| 2026-05-06 12:53 | 59.79880 | 30.26574 | 84 ft | 2 kts | 197° |
| 2026-05-06 12:54 | 59.79858 | 30.26561 | 82 ft | 6 kts | 196° |
| 2026-05-06 12:54 | 59.79801 | 30.26529 | 86 ft | 11 kts | 196° |
| 2026-05-06 12:54 | 59.79720 | 30.26482 | 82 ft | 13 kts | 196° |
| 2026-05-06 12:54 | 59.79630 | 30.26428 | 83 ft | 14 kts | 197° |
| 2026-05-06 12:55 | 59.79543 | 30.26376 | 84 ft | 11 kts | 197° |
| 2026-05-06 12:55 | 59.79495 | 30.26373 | 86 ft | 5 kts | 140° |
| 2026-05-06 12:55 | 59.79481 | 30.26455 | 87 ft | 8 kts | 103° |
| 2026-05-06 12:55 | 59.79465 | 30.26565 | 86 ft | 9 kts | 107° |
| 2026-05-06 12:56 | 59.79448 | 30.26684 | 85 ft | 9 kts | 106° |
| 2026-05-06 12:56 | 59.79424 | 30.26841 | 85 ft | 16 kts | 106° |
| 2026-05-06 12:56 | 59.79385 | 30.27106 | 85 ft | 24 kts | 106° |
| 2026-05-06 12:56 | 59.79331 | 30.27472 | 86 ft | 29 kts | 107° |
| 2026-05-06 12:57 | 59.79273 | 30.27853 | 86 ft | 29 kts | 106° |
| 2026-05-06 12:57 | 59.79221 | 30.28168 | 90 ft | 10 kts | 122° |
| 2026-05-06 12:57 | 59.79175 | 30.28227 | 89 ft | 1 kts | 165° |
| 2026-05-06 12:58 | 59.79171 | 30.28229 | 89 ft | 1 kts | 165° |
| 2026-05-06 12:58 | 59.79153 | 30.28239 | 90 ft | 6 kts | 165° |
| 2026-05-06 12:58 | 59.79094 | 30.28260 | 87 ft | 9 kts | 179° |
| 2026-05-06 12:58 | 59.79046 | 30.28195 | 91 ft | 9 kts | 258° |
| 2026-05-06 12:59 | 59.79058 | 30.28091 | 86 ft | 0 kts | 286° |
| 2026-05-06 13:00 | 59.79070 | 30.28009 | 88 ft | 25 kts | 287° |
| 2026-05-06 13:00 | 59.79197 | 30.27165 | 87 ft | 99 kts | 286° |
| 2026-05-06 13:00 | 59.79452 | 30.25467 | 84 ft | 154 kts | 287° |
| 2026-05-06 13:00 | 59.79779 | 30.23285 | 542 ft | 166 kts | 288° |
| 2026-05-06 13:01 | 59.80116 | 30.21106 | 1339 ft | 169 kts | 287° |
| 2026-05-06 13:01 | 59.80451 | 30.18876 | 2350 ft | 168 kts | 287° |
| 2026-05-06 13:01 | 59.80773 | 30.16670 | 3200 ft | 165 kts | 286° |
| 2026-05-06 13:01 | 59.81105 | 30.14395 | 3653 ft | 180 kts | 287° |
| 2026-05-06 13:02 | 59.81474 | 30.11874 | 3923 ft | 205 kts | 287° |
| 2026-05-06 13:02 | 59.81892 | 30.09031 | 4574 ft | 216 kts | 287° |
| 2026-05-06 13:02 | 59.82318 | 30.06108 | 5429 ft | 221 kts | 287° |
| 2026-05-06 13:02 | 59.82742 | 30.03187 | 6332 ft | 225 kts | 287° |
| 2026-05-06 13:03 | 59.83029 | 30.00083 | 7100 ft | 232 kts | 266° |
| 2026-05-06 13:03 | 59.82403 | 29.97089 | 7995 ft | 240 kts | 230° |
| 2026-05-06 13:03 | 59.80969 | 29.95362 | 8865 ft | 250 kts | 204° |
| 2026-05-06 13:03 | 59.79298 | 29.94308 | 9695 ft | 256 kts | 201° |
| 2026-05-06 13:04 | 59.77579 | 29.93361 | 9938 ft | 256 kts | 200° |
| 2026-05-06 13:04 | 59.75829 | 29.92630 | 9998 ft | 261 kts | 186° |
| 2026-05-06 13:04 | 59.74041 | 29.93449 | 10005 ft | 272 kts | 154° |
| 2026-05-06 13:04 | 59.72624 | 29.96165 | 10016 ft | 305 kts | 120° |
| 2026-05-06 13:05 | 59.71807 | 30.00216 | 10292 ft | 329 kts | 109° |
| 2026-05-06 13:05 | 59.71120 | 30.04665 | 10559 ft | 352 kts | 106° |
| 2026-05-06 13:05 | 59.70459 | 30.09435 | 11110 ft | 364 kts | 106° |
| 2026-05-06 13:05 | 59.69835 | 30.14355 | 11739 ft | 373 kts | 101° |
| 2026-05-06 13:06 | 59.69574 | 30.19540 | 12343 ft | 382 kts | 91° |
| 2026-05-06 13:06 | 59.69533 | 30.24845 | 13014 ft | 389 kts | 91° |
| 2026-05-06 13:06 | 59.69455 | 30.30252 | 13631 ft | 397 kts | 92° |
| 2026-05-06 13:06 | 59.69194 | 30.35700 | 14217 ft | 402 kts | 103° |
| 2026-05-06 13:07 | 59.68593 | 30.41151 | 14834 ft | 406 kts | 105° |
| 2026-05-06 13:07 | 59.67988 | 30.46635 | 15462 ft | 412 kts | 105° |
| 2026-05-06 13:07 | 59.67385 | 30.52222 | 16050 ft | 417 kts | 104° |
| 2026-05-06 13:07 | 59.66781 | 30.57876 | 16650 ft | 422 kts | 105° |
| 2026-05-06 13:08 | 59.66178 | 30.63521 | 17211 ft | 426 kts | 105° |
| 2026-05-06 13:08 | 59.65556 | 30.69324 | 17831 ft | 431 kts | 104° |
| 2026-05-06 13:08 | 59.64981 | 30.75207 | 18429 ft | 437 kts | 103° |
| 2026-05-06 13:08 | 59.64472 | 30.81185 | 18941 ft | 442 kts | 102° |
| 2026-05-06 13:09 | 59.64008 | 30.87162 | 19429 ft | 447 kts | 101° |
| 2026-05-06 13:09 | 59.63547 | 30.93269 | 19948 ft | 451 kts | 101° |
| 2026-05-06 13:09 | 59.63071 | 30.99457 | 20459 ft | 456 kts | 102° |
| 2026-05-06 13:09 | 59.62572 | 31.05673 | 20964 ft | 460 kts | 102° |
| 2026-05-06 13:10 | 59.62049 | 31.11941 | 21471 ft | 464 kts | 103° |
| 2026-05-06 13:10 | 59.61507 | 31.18249 | 21965 ft | 469 kts | 103° |
| 2026-05-06 13:10 | 59.60950 | 31.24631 | 22457 ft | 473 kts | 103° |
| 2026-05-06 13:10 | 59.60386 | 31.31064 | 22938 ft | 477 kts | 103° |
| 2026-05-06 13:11 | 59.59825 | 31.37453 | 23413 ft | 481 kts | 103° |
| 2026-05-06 13:11 | 59.59250 | 31.43991 | 23830 ft | 485 kts | 103° |
| 2026-05-06 13:11 | 59.58668 | 31.50584 | 24206 ft | 488 kts | 103° |
| 2026-05-06 13:11 | 59.58082 | 31.57230 | 24621 ft | 491 kts | 103° |
| 2026-05-06 13:12 | 59.57606 | 31.62620 | 24949 ft | 493 kts | 103° |
| 2026-05-06 13:12 | 59.57169 | 31.67539 | 25245 ft | 497 kts | 103° |
| 2026-05-06 13:12 | 59.56563 | 31.74293 | 25563 ft | 502 kts | 103° |
| 2026-05-06 13:12 | 59.55948 | 31.81115 | 25938 ft | 506 kts | 103° |
| 2026-05-06 13:13 | 59.55327 | 31.87965 | 26333 ft | 509 kts | 103° |
| 2026-05-06 13:13 | 59.54699 | 31.94843 | 26733 ft | 511 kts | 103° |
| 2026-05-06 13:13 | 59.53915 | 32.01690 | 27113 ft | 511 kts | 111° |
| 2026-05-06 13:13 | 59.52639 | 32.08192 | 27482 ft | 506 kts | 122° |
| 2026-05-06 13:14 | 59.50902 | 32.14199 | 27859 ft | 500 kts | 132° |
| 2026-05-06 13:14 | 59.48814 | 32.19495 | 28200 ft | 493 kts | 141° |
| 2026-05-06 13:14 | 59.46411 | 32.24307 | 28570 ft | 491 kts | 144° |
| 2026-05-06 13:14 | 59.43972 | 32.29057 | 28939 ft | 494 kts | 144° |
| 2026-05-06 13:15 | 59.41518 | 32.33826 | 29295 ft | 497 kts | 144° |
| 2026-05-06 13:15 | 59.39055 | 32.38611 | 29649 ft | 500 kts | 144° |
| 2026-05-06 13:15 | 59.36579 | 32.43420 | 29982 ft | 502 kts | 144° |
| 2026-05-06 13:15 | 59.34117 | 32.48198 | 30217 ft | 504 kts | 144° |
| 2026-05-06 13:16 | 59.32467 | 32.51395 | 30536 ft | 503 kts | 143° |
| 2026-05-06 13:16 | 59.29141 | 32.57826 | 31083 ft | 502 kts | 143° |
| 2026-05-06 13:16 | 59.26647 | 32.62625 | 31482 ft | 501 kts | 143° |
| 2026-05-06 13:16 | 59.24998 | 32.65791 | 31783 ft | 500 kts | 143° |
| 2026-05-06 13:17 | 59.21705 | 32.72104 | 32389 ft | 498 kts | 143° |
| 2026-05-06 13:17 | 59.19228 | 32.76833 | 32850 ft | 497 kts | 143° |
| 2026-05-06 13:17 | 59.17556 | 32.80018 | 33163 ft | 496 kts | 143° |
| 2026-05-06 13:17 | 59.15118 | 32.84658 | 33612 ft | 495 kts | 143° |
| 2026-05-06 13:18 | 59.12653 | 32.89337 | 34047 ft | 494 kts | 143° |
| 2026-05-06 13:18 | 59.10191 | 32.94000 | 34421 ft | 493 kts | 143° |
| 2026-05-06 13:18 | 59.07735 | 32.98648 | 34783 ft | 492 kts | 143° |
| 2026-05-06 13:18 | 59.05279 | 33.03284 | 35148 ft | 491 kts | 143° |
| 2026-05-06 13:19 | 59.02821 | 33.07917 | 35499 ft | 490 kts | 143° |
| 2026-05-06 13:19 | 59.00376 | 33.12511 | 35844 ft | 489 kts | 143° |
| 2026-05-06 13:19 | 58.97933 | 33.17093 | 36180 ft | 488 kts | 143° |
| 2026-05-06 13:19 | 58.95516 | 33.21620 | 36502 ft | 487 kts | 143° |
| 2026-05-06 13:20 | 58.93066 | 33.26197 | 36812 ft | 487 kts | 143° |
| 2026-05-06 13:20 | 58.90623 | 33.30757 | 36961 ft | 486 kts | 142° |
| 2026-05-06 13:20 | 58.88194 | 33.35283 | 36979 ft | 483 kts | 143° |
| 2026-05-06 13:21 | 58.83388 | 33.44187 | 36949 ft | 481 kts | 142° |
| 2026-05-06 13:21 | 58.78541 | 33.53123 | 36972 ft | 480 kts | 143° |